Overview Statistics Trail Chart Weather Telemetry Raw packets
 

This is the latest recevied weather packets stored in our database for station/object WA6OOO. If no packets are shown the sender has not sent any weather packets the latest 10 day(s).

<< 6 7 8 9 10 11 12 >>
Time Temp. Humidity Pressure Rain* Wind** Luminosity Snow
1788633268 26.11° C 61% 1017.9 hPa 0 mm - 651 W/m² -
1788632963 26.67° C 60% 1018 hPa 0 mm - 642 W/m² -
1788632662 26.11° C 60% 1018.1 hPa 0 mm - 634 W/m² -
1788632358 26.11° C 60% 1018 hPa 0 mm - 627 W/m² -
1788632053 25.56° C 63% 1018.1 hPa 0 mm - 619 W/m² -
1788631752 25.56° C 60% 1018.1 hPa 0 mm - 612 W/m² -
1788631449 25.56° C 61% 1018.2 hPa 0 mm - 601 W/m² -
1788631147 26.67° C 56% 1018.1 hPa 0 mm - 546 W/m² -
1788630847 26.67° C 56% 1018.2 hPa 0 mm - 546 W/m² -
1788630547 26.67° C 56% 1018.1 hPa 0 mm - 546 W/m² -
1788630243 26.67° C 56% 1018.1 hPa 0 mm - 546 W/m² -
1788629938 26.67° C 56% 1018.2 hPa 0 mm - 546 W/m² -
1788629634 26.67° C 56% 1018.2 hPa 0 mm - 546 W/m² -
1788629329 26.67° C 52% 1018 hPa 0 mm - 535 W/m² -
1788629027 26.67° C 52% 1017.9 hPa 0 mm - 523 W/m² -
1788628723 25.56° C 53% 1018 hPa 0 mm - 511 W/m² -
1788628420 25° C 57% 1018 hPa 0 mm - 498 W/m² -
1788628116 25.56° C 55% 1018.2 hPa 0 mm - 486 W/m² -
1788627812 25.56° C 56% 1018 hPa 0 mm - 471 W/m² -
1788627511 25.56° C 57% 1018 hPa 0 mm - 459 W/m² -
1788627207 25° C 58% 1018.1 hPa 0 mm - 444 W/m² -
1788626906 25° C 59% 1018 hPa 0 mm - 430 W/m² -
1788626601 24.44° C 60% 1018 hPa 0 mm - 416 W/m² -
1788626297 23.89° C 60% 1017.9 hPa 0 mm - 403 W/m² -
1788625994 23.89° C 60% 1017.9 hPa 0 mm - 390 W/m² -

* Rain latest hour (hover to see other rain measurements)
** Current wind speed in m/s (hover to see current wind gust speed)